Time;durP1;ratioP1;P1;durP2;ratioP2;P2;SDS_P1;SDS_P2;PMS_P1;PMS_P2;Temp;Humidity;BMP_temperature;BMP_pressure;BME280_temperature;BME280_humidity;BME280_pressure;Samples;Min_cycle;Max_cycle;Signal;HPM_P1;HPM_P2
2022/06/06 00:01:24;;;;;;;6.82;2.00;;;16.50;99.90;;;;;;5061588;28;20040;-77
2022/06/06 00:03:50;;;;;;;3.90;1.77;;;16.50;99.90;;;;;;5061044;28;20048;-74
2022/06/06 00:06:19;;;;;;;3.60;1.80;;;16.50;99.90;;;;;;5055869;28;20036;-77
2022/06/06 00:08:46;;;;;;;4.07;1.90;;;16.50;99.90;;;;;;5056469;28;20470;-72
2022/06/06 00:11:12;;;;;;;2.00;1.80;;;16.50;99.90;;;;;;5066365;28;20039;-74
2022/06/06 00:13:39;;;;;;;3.45;1.90;;;16.50;99.90;;;;;;5056230;28;20033;-72
2022/06/06 00:16:06;;;;;;;7.60;2.20;;;16.50;99.90;;;;;;5057417;28;20477;-76
2022/06/06 00:18:32;;;;;;;7.55;2.17;;;16.50;99.90;;;;;;5059507;28;20025;-76
2022/06/06 00:20:59;;;;;;;3.05;1.90;;;16.40;99.90;;;;;;5055764;28;20485;-75
2022/06/06 00:23:25;;;;;;;3.55;2.30;;;16.40;99.90;;;;;;5062789;28;20028;-75
2022/06/06 00:25:52;;;;;;;3.83;1.90;;;16.30;99.90;;;;;;5062538;28;20443;-71
2022/06/06 00:28:17;;;;;;;4.07;2.20;;;16.40;99.90;;;;;;5070099;28;20051;-72
2022/06/06 00:30:43;;;;;;;2.67;2.10;;;16.40;99.90;;;;;;5065578;28;20033;-73
2022/06/06 00:35:59;;;;;;;1.95;1.60;;;16.40;99.90;;;;;;5069908;28;20036;-72
2022/06/06 00:38:26;;;;;;;6.05;2.17;;;16.30;99.90;;;;;;5066438;28;20479;-72
2022/06/06 00:40:52;;;;;;;2.40;2.03;;;16.30;99.90;;;;;;5066226;28;20124;-72
2022/06/06 00:43:19;;;;;;;4.28;2.30;;;16.20;99.90;;;;;;5065812;28;20024;-73
2022/06/06 00:45:52;;;;;;;3.00;2.28;;;16.10;99.90;;;;;;5057849;28;20039;-73
2022/06/06 00:48:24;;;;;;;2.83;2.05;;;16.10;99.90;;;;;;5064610;28;20031;-74
2022/06/06 00:51:25;;;;;;;3.88;2.22;;;16.10;99.90;;;;;;5066285;28;20028;-73
2022/06/06 00:53:55;;;;;;;2.35;2.13;;;16.00;99.90;;;;;;4960724;28;20033;-73
2022/06/06 00:56:39;;;;;;;3.92;2.08;;;16.00;99.90;;;;;;5043557;28;20076;-72
2022/06/06 00:59:21;;;;;;;3.58;2.78;;;15.90;99.90;;;;;;5063839;28;20155;-72
2022/06/06 01:01:51;;;;;;;4.57;2.30;;;15.90;99.90;;;;;;5069139;28;20103;-72
2022/06/06 01:04:19;;;;;;;2.65;1.80;;;15.90;99.90;;;;;;5068978;28;20039;-72
2022/06/06 01:06:45;;;;;;;5.00;2.17;;;15.90;99.90;;;;;;5063072;28;20110;-80
2022/06/06 01:09:13;;;;;;;2.63;2.40;;;15.80;99.90;;;;;;5068404;28;20059;-78
2022/06/06 01:11:47;;;;;;;3.42;2.55;;;15.80;99.90;;;;;;5071013;28;20115;-79
2022/06/06 01:14:17;;;;;;;5.45;2.58;;;15.80;99.90;;;;;;5068933;28;20028;-79
2022/06/06 01:16:48;;;;;;;2.80;2.47;;;15.80;99.90;;;;;;5073182;28;20489;-79
2022/06/06 01:19:25;;;;;;;3.42;2.75;;;15.80;99.90;;;;;;5071744;28;20029;-79
2022/06/06 01:21:56;;;;;;;3.22;2.40;;;15.80;99.90;;;;;;5073603;28;20028;-80
2022/06/06 01:24:47;;;;;;;2.80;2.47;;;15.80;99.90;;;;;;5067281;28;20134;-80
2022/06/06 01:27:29;;;;;;;4.15;2.50;;;15.80;99.90;;;;;;5053957;28;20037;-79
2022/06/06 01:30:07;;;;;;;3.58;2.90;;;15.70;99.90;;;;;;5052926;28;20453;-79
2022/06/06 01:32:48;;;;;;;7.45;2.72;;;15.70;99.90;;;;;;5054218;28;20029;-79
2022/06/06 01:35:33;;;;;;;3.45;2.30;;;15.70;99.90;;;;;;5069275;28;20040;-79
2022/06/06 01:37:59;;;;;;;4.55;2.78;;;15.60;99.90;;;;;;5069940;28;20516;-78
2022/06/06 01:40:38;;;;;;;5.63;2.75;;;15.60;99.90;;;;;;5073014;28;20039;-78
2022/06/06 01:43:25;;;;;;;3.97;2.88;;;15.50;99.90;;;;;;5067977;28;20025;-78
2022/06/06 01:46:04;;;;;;;4.00;2.75;;;15.40;99.90;;;;;;5068105;28;20469;-78
2022/06/06 01:48:35;;;;;;;3.88;2.50;;;15.40;99.90;;;;;;5070139;28;20511;-78
2022/06/06 01:51:29;;;;;;;4.60;2.83;;;15.40;99.90;;;;;;5072505;28;20656;-78
2022/06/06 01:53:55;;;;;;;4.60;3.03;;;15.30;99.90;;;;;;5061161;28;20037;-78
2022/06/06 01:56:27;;;;;;;3.13;2.88;;;15.30;99.90;;;;;;5072463;28;20100;-78
2022/06/06 01:58:53;;;;;;;8.18;2.88;;;15.20;99.90;;;;;;5066279;28;20032;-78
2022/06/06 02:01:19;;;;;;;6.38;2.85;;;15.20;99.90;;;;;;5067910;28;20032;-78
2022/06/06 02:03:45;;;;;;;3.88;2.90;;;15.20;99.90;;;;;;5066067;28;20036;-78
2022/06/06 02:06:11;;;;;;;3.80;3.08;;;15.20;99.90;;;;;;5066873;28;20455;-78
2022/06/06 02:08:37;;;;;;;3.42;3.00;;;15.20;99.90;;;;;;5070457;28;20028;-78
2022/06/06 02:11:03;;;;;;;3.75;2.85;;;15.10;99.90;;;;;;5064330;28;20156;-78
2022/06/06 02:13:28;;;;;;;3.63;3.08;;;15.00;99.90;;;;;;5060568;28;20028;-78
2022/06/06 02:15:55;;;;;;;3.38;3.08;;;15.00;99.90;;;;;;5045755;28;20505;-79
2022/06/06 02:18:22;;;;;;;7.40;3.25;;;14.90;99.90;;;;;;5062894;28;20029;-80
2022/06/06 02:20:48;;;;;;;3.53;2.78;;;14.90;99.90;;;;;;5064849;28;20047;-81
2022/06/06 02:23:14;;;;;;;3.70;3.22;;;14.80;99.90;;;;;;5061144;28;20553;-80
2022/06/06 02:25:40;;;;;;;3.30;3.00;;;14.70;99.90;;;;;;5058499;28;20116;-80
2022/06/06 02:28:07;;;;;;;4.40;2.85;;;14.80;99.90;;;;;;5045450;28;20093;-80
2022/06/06 02:30:35;;;;;;;4.10;3.03;;;14.70;99.90;;;;;;5072056;28;20032;-81
2022/06/06 02:33:01;;;;;;;3.35;2.90;;;14.60;99.90;;;;;;5066396;28;20051;-80
2022/06/06 02:35:32;;;;;;;3.80;3.40;;;14.60;99.90;;;;;;5065652;28;20028;-81
2022/06/06 02:37:58;;;;;;;3.60;2.72;;;14.50;99.90;;;;;;5067268;28;20103;-80
2022/06/06 02:40:26;;;;;;;3.67;2.70;;;14.50;99.90;;;;;;5070920;28;20107;-77
2022/06/06 02:42:52;;;;;;;3.80;3.50;;;14.40;99.90;;;;;;5061512;28;20053;-77
2022/06/06 02:45:19;;;;;;;3.58;2.83;;;14.40;99.90;;;;;;5069312;28;20075;-77
2022/06/06 02:47:49;;;;;;;3.80;3.45;;;14.40;99.90;;;;;;5069570;28;20029;-78
2022/06/06 02:50:19;;;;;;;5.03;3.40;;;14.40;99.90;;;;;;5071227;28;20522;-78
2022/06/06 02:52:44;;;;;;;4.75;3.03;;;14.30;99.90;;;;;;5066590;28;20500;-78
2022/06/06 02:55:12;;;;;;;3.28;2.92;;;14.20;99.90;;;;;;5070579;28;20032;-78
2022/06/06 02:57:40;;;;;;;3.65;3.15;;;14.20;99.90;;;;;;5067287;28;20041;-78
2022/06/06 03:00:08;;;;;;;3.97;3.15;;;14.10;99.90;;;;;;5063096;28;20032;-80
2022/06/06 03:02:35;;;;;;;4.15;3.70;;;14.10;99.90;;;;;;5064882;28;20033;-78
2022/06/06 03:05:02;;;;;;;4.30;3.67;;;14.10;99.90;;;;;;5069428;28;20047;-78
2022/06/06 03:07:36;;;;;;;7.85;4.18;;;14.10;99.90;;;;;;5058777;28;20025;-78
2022/06/06 03:10:20;;;;;;;3.83;3.53;;;14.10;99.90;;;;;;5064759;28;20037;-78
2022/06/06 03:13:04;;;;;;;4.07;3.67;;;14.10;99.90;;;;;;5052864;28;20385;-78
2022/06/06 03:21:54;;;;;;;6.67;3.27;;;14.00;99.90;;;;;;5058801;28;20092;-78
2022/06/06 03:24:40;;;;;;;3.92;3.50;;;14.00;99.90;;;;;;5065136;28;20032;-79
2022/06/06 03:27:18;;;;;;;5.97;4.03;;;14.00;99.90;;;;;;5064395;28;20036;-79
2022/06/06 03:29:52;;;;;;;8.45;4.30;;;14.00;99.90;;;;;;5052945;28;20512;-79
2022/06/06 03:32:23;;;;;;;4.00;3.58;;;14.10;99.90;;;;;;5060292;28;20033;-79
2022/06/06 03:34:52;;;;;;;5.28;4.00;;;14.10;99.90;;;;;;5067879;28;20508;-78
2022/06/06 03:37:37;;;;;;;4.43;3.70;;;14.20;99.90;;;;;;5055496;28;20033;-79
2022/06/06 03:40:11;;;;;;;5.97;4.00;;;14.20;99.90;;;;;;5063447;28;20024;-78
2022/06/06 03:43:00;;;;;;;4.70;3.88;;;14.30;99.90;;;;;;5056023;28;20033;-80
2022/06/06 03:45:30;;;;;;;3.75;3.17;;;14.30;99.90;;;;;;5059102;28;20029;-79
2022/06/06 03:48:41;;;;;;;4.10;3.33;;;14.40;99.90;;;;;;5056145;28;20048;-78
2022/06/06 03:51:18;;;;;;;4.93;4.05;;;14.40;99.90;;;;;;5061984;28;20020;-78
2022/06/06 03:54:01;;;;;;;4.13;3.75;;;14.40;99.90;;;;;;5063651;28;20385;-78
2022/06/06 03:56:27;;;;;;;5.57;3.50;;;14.50;99.90;;;;;;5064300;28;20421;-79
2022/06/06 03:58:54;;;;;;;4.05;3.42;;;14.50;99.90;;;;;;5065586;28;20024;-78
2022/06/06 04:01:22;;;;;;;3.65;3.35;;;14.60;99.90;;;;;;5067408;28;20029;-79
2022/06/06 04:03:48;;;;;;;5.10;3.95;;;14.60;99.90;;;;;;5070653;28;20059;-78
2022/06/06 04:06:17;;;;;;;7.45;3.22;;;14.70;99.90;;;;;;5069775;28;20025;-78
2022/06/06 04:08:42;;;;;;;3.75;3.45;;;14.70;99.90;;;;;;5069239;28;20028;-79
2022/06/06 04:11:40;;;;;;;4.55;3.15;;;14.80;99.90;;;;;;5065501;28;20021;-79
2022/06/06 04:14:21;;;;;;;3.15;2.85;;;14.80;99.90;;;;;;5044772;28;20131;-80
2022/06/06 04:16:54;;;;;;;3.72;3.42;;;14.80;99.90;;;;;;5063129;28;20108;-79
2022/06/06 04:19:34;;;;;;;6.93;3.10;;;14.80;99.90;;;;;;5071139;28;20033;-80
2022/06/06 04:22:18;;;;;;;5.28;3.15;;;14.90;99.90;;;;;;5063193;28;20025;-80
2022/06/06 04:25:02;;;;;;;3.63;3.10;;;14.90;99.90;;;;;;5064180;28;20059;-80
2022/06/06 04:27:38;;;;;;;3.08;2.78;;;14.90;99.90;;;;;;5068262;28;20032;-80
2022/06/06 04:30:27;;;;;;;4.07;3.20;;;14.90;99.90;;;;;;5063982;28;20472;-80
2022/06/06 04:33:08;;;;;;;4.82;3.10;;;15.00;99.90;;;;;;5054224;28;20064;-78
2022/06/06 04:35:55;;;;;;;5.60;3.42;;;15.20;99.90;;;;;;5065983;28;20039;-79
2022/06/06 04:38:20;;;;;;;3.92;3.10;;;15.30;99.90;;;;;;5068817;28;20050;-80
2022/06/06 04:41:14;;;;;;;3.33;3.03;;;15.50;99.90;;;;;;5068575;28;20032;-80
2022/06/06 04:44:12;;;;;;;3.92;3.00;;;15.60;99.90;;;;;;5074059;28;20097;-79
2022/06/06 04:46:47;;;;;;;5.78;2.88;;;15.70;99.90;;;;;;5074685;28;20021;-80
2022/06/06 04:49:13;;;;;;;4.93;3.60;;;15.90;99.90;;;;;;5068459;28;20082;-79
2022/06/06 04:51:42;;;;;;;4.50;3.45;;;16.10;99.90;;;;;;5068790;28;20028;-81
2022/06/06 04:54:13;;;;;;;3.45;2.88;;;16.20;99.90;;;;;;5059634;28;20446;-80
2022/06/06 04:56:39;;;;;;;3.53;2.88;;;16.30;99.90;;;;;;5061445;28;20370;-80
2022/06/06 04:59:09;;;;;;;5.18;3.30;;;16.50;99.90;;;;;;5063792;28;20033;-77
2022/06/06 05:01:37;;;;;;;7.90;3.00;;;16.50;99.90;;;;;;5056945;28;20033;-78
2022/06/06 05:04:02;;;;;;;3.80;3.30;;;16.60;99.90;;;;;;5064510;28;20064;-79
2022/06/06 05:06:58;;;;;;;3.80;3.10;;;16.70;99.90;;;;;;5067413;28;20060;-78
2022/06/06 05:09:58;;;;;;;6.60;3.00;;;16.70;99.90;;;;;;5079990;28;20425;-79
2022/06/06 05:13:07;;;;;;;3.75;3.20;;;16.70;99.90;;;;;;5068860;28;20021;-78
2022/06/06 05:15:43;;;;;;;3.65;2.63;;;16.80;99.90;;;;;;5054178;28;20489;-78
2022/06/06 05:18:19;;;;;;;5.38;3.20;;;16.90;99.90;;;;;;5064586;28;20033;-78
2022/06/06 05:21:35;;;;;;;6.10;3.05;;;17.10;99.90;;;;;;5070834;28;20074;-79
2022/06/06 05:24:33;;;;;;;11.82;3.38;;;17.20;99.90;;;;;;5029249;28;20393;-79
2022/06/06 05:27:23;;;;;;;5.05;3.10;;;17.40;99.90;;;;;;5066353;28;20082;-79
2022/06/06 05:30:00;;;;;;;6.75;3.22;;;17.50;99.90;;;;;;5063876;28;20155;-80
2022/06/06 05:32:45;;;;;;;4.95;3.05;;;17.60;99.90;;;;;;5073759;28;20029;-80
2022/06/06 05:35:49;;;;;;;4.25;3.20;;;17.70;99.90;;;;;;5067748;28;20044;-79
2022/06/06 05:38:23;;;;;;;6.05;2.97;;;17.70;99.90;;;;;;5064715;28;20573;-81
2022/06/06 05:40:55;;;;;;;7.70;3.45;;;17.60;99.90;;;;;;5073088;28;20462;-81
2022/06/06 05:43:51;;;;;;;6.22;3.40;;;17.60;99.90;;;;;;5073313;28;20032;-79
2022/06/06 05:46:47;;;;;;;5.32;3.38;;;17.50;99.90;;;;;;5061796;28;20020;-78
2022/06/06 05:49:44;;;;;;;5.82;3.13;;;17.50;99.90;;;;;;5058592;28;20021;-79
2022/06/06 05:52:28;;;;;;;3.78;2.95;;;17.50;99.90;;;;;;5040437;28;20033;-81
2022/06/06 05:55:34;;;;;;;6.68;3.53;;;17.60;99.90;;;;;;5068822;28;20028;-80
2022/06/06 05:58:31;;;;;;;4.53;2.92;;;17.90;99.90;;;;;;5067054;28;20358;-77
2022/06/06 06:01:21;;;;;;;4.70;2.83;;;18.10;99.90;;;;;;5067776;28;20039;-78
2022/06/06 06:03:53;;;;;;;3.60;2.55;;;18.20;99.90;;;;;;5066019;28;20103;-78
2022/06/06 06:06:54;;;;;;;4.25;3.00;;;18.20;99.90;;;;;;5070670;28;20033;-78
2022/06/06 06:10:01;;;;;;;5.32;2.67;;;18.20;99.90;;;;;;5070234;28;20119;-78
2022/06/06 06:12:41;;;;;;;4.05;2.97;;;18.30;99.90;;;;;;5072490;28;20446;-78
2022/06/06 06:15:24;;;;;;;2.75;2.55;;;18.50;99.90;;;;;;5069162;28;20151;-77
2022/06/06 06:17:53;;;;;;;5.00;2.85;;;18.60;99.90;;;;;;5066181;28;20037;-79
2022/06/06 06:20:48;;;;;;;2.83;2.55;;;18.90;99.90;;;;;;5066519;28;20077;-79
2022/06/06 06:23:20;;;;;;;3.15;2.38;;;19.10;99.90;;;;;;5067621;28;20089;-79
2022/06/06 06:25:49;;;;;;;5.13;3.05;;;19.10;99.90;;;;;;5062393;28;20147;-79
2022/06/06 06:28:14;;;;;;;3.30;2.22;;;19.20;99.90;;;;;;5060641;28;20053;-79
2022/06/06 06:31:03;;;;;;;6.85;2.63;;;19.20;99.90;;;;;;5068886;28;20493;-80
2022/06/06 06:33:41;;;;;;;3.42;3.13;;;19.30;99.90;;;;;;5049557;28;20033;-76
2022/06/06 06:36:32;;;;;;;3.47;2.67;;;19.30;99.90;;;;;;5064132;28;20037;-77
2022/06/06 06:39:24;;;;;;;4.72;2.67;;;19.30;99.90;;;;;;5065120;28;20036;-78
2022/06/06 06:42:00;;;;;;;3.42;2.53;;;19.40;99.90;;;;;;5061104;28;20049;-77
2022/06/06 06:44:33;;;;;;;3.10;2.80;;;19.40;99.90;;;;;;5067547;28;20070;-79
2022/06/06 06:47:08;;;;;;;4.25;2.17;;;19.50;99.90;;;;;;5068537;28;20024;-78
2022/06/06 06:49:41;;;;;;;3.72;2.53;;;19.60;99.90;;;;;;5067447;28;20029;-78
2022/06/06 06:52:08;;;;;;;5.18;2.25;;;19.70;99.90;;;;;;5069934;28;20351;-77
2022/06/06 06:54:49;;;;;;;3.30;2.35;;;19.80;99.90;;;;;;5073222;28;20446;-78
2022/06/06 06:57:22;;;;;;;4.28;2.10;;;19.90;99.90;;;;;;5064928;28;20037;-78
2022/06/06 07:00:06;;;;;;;2.58;2.38;;;20.00;99.90;;;;;;5068269;28;20028;-78
2022/06/06 07:08:44;;;;;;;2.47;2.28;;;20.40;99.90;;;;;;5063474;28;20054;-73
2022/06/06 07:11:39;;;;;;;4.18;2.45;;;20.60;99.90;;;;;;5038977;28;20033;-79
2022/06/06 07:14:09;;;;;;;5.28;2.80;;;20.70;99.90;;;;;;5046804;28;20048;-76
2022/06/06 07:16:37;;;;;;;4.35;2.92;;;20.80;99.90;;;;;;5060332;28;20033;-78
2022/06/06 07:19:03;;;;;;;5.78;2.67;;;20.90;99.90;;;;;;5065296;28;20033;-89
2022/06/06 07:21:32;;;;;;;3.20;2.55;;;21.00;99.90;;;;;;5048769;28;20039;-87
2022/06/06 07:24:00;;;;;;;7.63;2.90;;;21.10;99.90;;;;;;5064995;28;20181;-86
2022/06/06 07:26:27;;;;;;;4.78;3.15;;;21.10;99.90;;;;;;5070752;28;20108;-90
2022/06/06 07:28:52;;;;;;;3.45;2.50;;;21.10;99.90;;;;;;5067796;28;20048;-87
2022/06/06 07:31:53;;;;;;;3.22;2.55;;;21.10;99.90;;;;;;5089913;28;20034;-87
2022/06/06 07:34:18;;;;;;;5.03;2.58;;;21.20;99.90;;;;;;5091647;28;20074;-86
2022/06/06 07:37:13;;;;;;;5.88;2.47;;;21.20;99.90;;;;;;5090905;28;20028;-90
2022/06/06 07:40:15;;;;;;;3.38;2.33;;;21.20;99.90;;;;;;5084733;28;20044;-88
2022/06/06 07:43:11;;;;;;;3.72;2.55;;;21.20;99.90;;;;;;5087825;28;20064;-90
2022/06/06 07:45:48;;;;;;;4.75;2.80;;;21.30;99.90;;;;;;5088183;28;20123;-78
2022/06/06 07:48:29;;;;;;;5.55;2.47;;;21.40;99.90;;;;;;5083752;28;20074;-83
2022/06/06 07:51:03;;;;;;;4.05;2.67;;;21.40;99.90;;;;;;5076954;28;20055;-81
2022/06/06 07:54:06;;;;;;;5.13;2.97;;;21.60;99.90;;;;;;5082738;28;20043;-84
2022/06/06 07:56:57;;;;;;;4.57;2.60;;;21.80;99.90;;;;;;5076695;28;20047;-85
2022/06/06 07:59:28;;;;;;;2.80;2.60;;;22.00;99.90;;;;;;5076036;28;20039;-85
2022/06/06 08:02:23;;;;;;;3.53;2.50;;;22.40;99.90;;;;;;5083561;28;20469;-79
2022/06/06 08:05:16;;;;;;;2.75;2.05;;;22.40;99.90;;;;;;5080709;28;20493;-85
2022/06/06 08:08:03;;;;;;;3.67;2.08;;;22.40;99.90;;;;;;5082842;28;20110;-74
2022/06/06 08:10:48;;;;;;;3.97;2.20;;;22.30;99.90;;;;;;5085137;28;20107;-70
2022/06/06 08:14:09;;;;;;;4.47;2.80;;;22.30;99.90;;;;;;5087567;28;20128;-71
2022/06/06 08:17:04;;;;;;;3.05;2.30;;;22.20;99.90;;;;;;5050614;28;20122;-69
2022/06/06 08:19:48;;;;;;;3.28;2.15;;;22.30;99.90;;;;;;5062168;28;20032;-67
2022/06/06 08:22:15;;;;;;;2.58;1.77;;;22.40;99.90;;;;;;5080496;28;20032;-67
2022/06/06 08:24:42;;;;;;;3.70;2.30;;;;;;;;;;5079469;28;20056;-67
2022/06/06 08:27:12;;;;;;;2.53;2.05;;;22.80;99.90;;;;;;5089242;28;20032;-73
2022/06/06 08:29:43;;;;;;;2.95;2.25;;;;;;;;;;5065639;28;20064;-72
2022/06/06 08:32:09;;;;;;;4.70;2.28;;;23.00;99.90;;;;;;5058794;28;20107;-71
2022/06/06 08:34:35;;;;;;;2.95;1.70;;;23.30;99.90;;;;;;5058296;28;20033;-71
2022/06/06 08:37:19;;;;;;;1.83;1.73;;;23.50;99.90;;;;;;5043584;28;20440;-71
2022/06/06 08:40:06;;;;;;;4.07;2.10;;;23.50;99.90;;;;;;5070178;28;20040;-71
2022/06/06 08:42:50;;;;;;;3.80;2.00;;;23.60;99.90;;;;;;5067677;28;20497;-71
2022/06/06 08:45:27;;;;;;;3.05;1.67;;;23.50;99.90;;;;;;5066142;28;20078;-72
2022/06/06 08:48:47;;;;;;;3.10;2.00;;;23.60;99.90;;;;;;5067592;28;20025;-72
2022/06/06 08:51:41;;;;;;;3.37;1.80;;;23.60;99.90;;;;;;5000607;28;20037;-71
2022/06/06 08:54:40;;;;;;;5.68;1.60;;;23.60;99.90;;;;;;5069574;28;20279;-72
2022/06/06 08:57:33;;;;;;;2.40;2.20;;;23.60;99.90;;;;;;5069902;28;20035;-72
2022/06/06 09:00:18;;;;;;;2.20;1.60;;;23.70;94.00;;;;;;5063873;28;20032;-72
2022/06/06 09:03:24;;;;;;;4.82;1.70;;;23.80;92.80;;;;;;5067590;28;20039;-72
2022/06/06 09:06:06;;;;;;;2.95;1.42;;;23.80;92.30;;;;;;5068870;28;20083;-72
2022/06/06 09:08:43;;;;;;;2.58;1.83;;;23.70;92.40;;;;;;5068313;28;20057;-72
2022/06/06 09:11:28;;;;;;;2.50;1.48;;;23.80;92.50;;;;;;5068937;28;20031;-71
2022/06/06 09:14:32;;;;;;;3.22;1.65;;;24.10;90.40;;;;;;5068206;28;20047;-72
2022/06/06 09:17:29;;;;;;;4.30;1.60;;;24.40;90.10;;;;;;5067200;28;20527;-71
2022/06/06 09:20:21;;;;;;;4.95;1.55;;;24.60;90.10;;;;;;5063388;28;20029;-73
2022/06/06 09:23:08;;;;;;;3.38;1.35;;;24.90;86.20;;;;;;5020354;28;20045;-71
2022/06/06 09:25:42;;;;;;;1.85;1.40;;;24.80;83.90;;;;;;5065126;28;20104;-72
2022/06/06 09:28:11;;;;;;;2.15;1.48;;;24.70;83.80;;;;;;5064622;28;20032;-71
2022/06/06 09:31:14;;;;;;;2.05;1.60;;;24.50;83.70;;;;;;5067270;28;20044;-71
2022/06/06 09:34:16;;;;;;;2.45;1.48;;;24.20;83.30;;;;;;5066793;28;20370;-71
2022/06/06 09:36:54;;;;;;;1.80;1.50;;;24.20;83.00;;;;;;5062119;28;20091;-72
2022/06/06 09:39:31;;;;;;;3.17;1.65;;;24.20;84.20;;;;;;5060694;28;20074;-72
2022/06/06 09:42:19;;;;;;;4.35;1.60;;;24.40;83.90;;;;;;5063467;28;20032;-72
2022/06/06 09:45:06;;;;;;;3.67;1.45;;;24.60;82.20;;;;;;5074250;28;20036;-71
2022/06/06 09:48:10;;;;;;;6.90;1.70;;;24.80;82.50;;;;;;5067002;28;20107;-74
2022/06/06 09:51:18;;;;;;;1.48;1.27;;;24.90;80.00;;;;;;5066446;28;20083;-73
2022/06/06 10:00:33;;;;;;;4.17;2.07;;;24.70;79.60;;;;;;5067190;28;20110;-73
2022/06/06 10:03:26;;;;;;;1.55;1.30;;;24.70;79.70;;;;;;5070374;28;20535;-71
2022/06/06 10:06:16;;;;;;;4.95;1.20;;;24.60;80.40;;;;;;5071607;28;20029;-75
2022/06/06 10:09:23;;;;;;;2.30;1.40;;;24.80;81.00;;;;;;5070776;28;20073;-73
2022/06/06 10:11:54;;;;;;;2.13;1.48;;;25.10;78.30;;;;;;5071571;28;20027;-75
2022/06/06 10:14:39;;;;;;;1.55;1.45;;;25.40;78.30;;;;;;5068520;28;20031;-75
2022/06/06 10:17:39;;;;;;;2.30;1.10;;;25.60;74.00;;;;;;5065205;28;20037;-73
2022/06/06 10:20:16;;;;;;;2.97;1.45;;;25.60;74.30;;;;;;5064583;28;20036;-73
2022/06/06 10:22:54;;;;;;;4.72;1.25;;;25.60;73.50;;;;;;5065530;28;20032;-73
2022/06/06 10:25:38;;;;;;;2.60;1.40;;;;;;;;;;5069159;28;20106;-73
2022/06/06 10:28:35;;;;;;;3.38;1.30;;;25.70;74.50;;;;;;5064363;28;20038;-72
2022/06/06 10:31:32;;;;;;;3.05;1.27;;;25.80;74.40;;;;;;5066228;28;20115;-74
2022/06/06 10:34:30;;;;;;;1.58;1.48;;;25.70;73.50;;;;;;5067754;28;20075;-71
2022/06/06 10:37:23;;;;;;;2.03;1.60;;;25.80;73.60;;;;;;5071655;28;20056;-72
2022/06/06 10:40:09;;;;;;;2.55;1.38;;;26.00;73.40;;;;;;5067774;28;20072;-72
2022/06/06 10:42:49;;;;;;;1.65;1.45;;;26.10;72.40;;;;;;5044325;28;20031;-73
2022/06/06 10:45:28;;;;;;;3.03;1.27;;;26.00;71.10;;;;;;5054572;28;20032;-73
2022/06/06 10:48:23;;;;;;;1.48;1.38;;;25.80;71.30;;;;;;5062177;28;20142;-71
2022/06/06 10:54:11;;;;;;;1.50;1.40;;;25.30;73.40;;;;;;5055966;28;20035;-72
2022/06/06 10:56:55;;;;;;;4.22;1.30;;;25.10;72.80;;;;;;5063155;28;20029;-74
2022/06/06 10:59:45;;;;;;;2.50;2.03;;;25.00;74.20;;;;;;5060222;28;20036;-74
2022/06/06 11:02:34;;;;;;;2.80;1.90;;;24.80;74.80;;;;;;5063262;28;20478;-73
2022/06/06 11:05:27;;;;;;;2.53;2.05;;;24.70;75.80;;;;;;5055917;28;20029;-70
2022/06/06 11:08:15;;;;;;;2.67;1.77;;;24.60;76.70;;;;;;5058250;28;20024;-70
2022/06/06 11:10:49;;;;;;;1.80;1.40;;;24.80;75.90;;;;;;5063366;28;20114;-70
2022/06/06 11:13:46;;;;;;;1.58;1.40;;;25.10;76.30;;;;;;5066436;28;20025;-70
2022/06/06 11:16:33;;;;;;;2.05;1.40;;;25.50;72.90;;;;;;5066727;28;20033;-70
2022/06/06 11:19:17;;;;;;;1.52;1.20;;;25.50;71.80;;;;;;5063685;28;20060;-71
2022/06/06 11:22:10;;;;;;;2.15;1.70;;;25.40;72.10;;;;;;5061582;28;20083;-71
2022/06/06 11:25:13;;;;;;;3.50;1.58;;;25.40;72.10;;;;;;5057288;28;20036;-71
2022/06/06 11:28:17;;;;;;;3.05;1.00;;;25.70;72.50;;;;;;4968079;28;20102;-71
2022/06/06 11:31:03;;;;;;;1.25;1.15;;;26.00;71.90;;;;;;5065758;28;20041;-71
2022/06/06 11:34:00;;;;;;;1.60;1.45;;;26.30;70.90;;;;;;5069307;28;20025;-70
2022/06/06 11:36:44;;;;;;;2.53;1.60;;;26.40;70.70;;;;;;5069195;28;20028;-70
2022/06/06 11:39:13;;;;;;;2.15;1.35;;;;;;;;;;5043214;28;20394;-71
2022/06/06 11:41:56;;;;;;;2.40;1.77;;;26.70;71.00;;;;;;5069033;28;20025;-69
2022/06/06 11:44:51;;;;;;;2.35;1.38;;;26.90;70.20;;;;;;5060312;28;20451;-69
2022/06/06 11:47:47;;;;;;;1.60;1.33;;;26.90;69.10;;;;;;5065689;28;20481;-69
2022/06/06 11:50:42;;;;;;;3.55;1.60;;;26.70;69.40;;;;;;5067790;28;20025;-69
2022/06/06 11:53:29;;;;;;;2.30;1.50;;;26.60;69.00;;;;;;5064006;28;20497;-71
2022/06/06 11:55:59;;;;;;;1.67;1.27;;;26.30;68.30;;;;;;5046271;28;20064;-71
2022/06/06 11:59:02;;;;;;;5.13;1.50;;;26.20;69.90;;;;;;5066482;28;20052;-69
2022/06/06 12:01:33;;;;;;;1.73;1.23;;;25.90;69.10;;;;;;5065019;28;20111;-67
2022/06/06 12:04:18;;;;;;;2.08;1.17;;;25.70;69.40;;;;;;5061803;28;20063;-68
2022/06/06 12:07:15;;;;;;;2.00;1.67;;;25.60;70.40;;;;;;5070025;28;20040;-70
2022/06/06 12:09:53;;;;;;;3.42;1.58;;;25.80;70.70;;;;;;5060183;28;20527;-68
2022/06/06 12:12:47;;;;;;;3.35;1.48;;;26.20;70.90;;;;;;5064231;28;20108;-68
2022/06/06 12:15:51;;;;;;;2.42;1.70;;;26.40;68.60;;;;;;5066024;28;20483;-71
2022/06/06 12:18:43;;;;;;;3.58;1.50;;;26.10;67.90;;;;;;5065249;28;20116;-70
2022/06/06 12:21:47;;;;;;;1.77;1.42;;;25.80;68.50;;;;;;5065027;28;20024;-71
2022/06/06 12:24:35;;;;;;;1.52;1.30;;;25.40;69.10;;;;;;5065489;28;20025;-71
2022/06/06 12:27:22;;;;;;;3.03;1.63;;;25.20;69.10;;;;;;5062499;28;20028;-71
2022/06/06 12:30:02;;;;;;;4.50;1.73;;;24.90;69.60;;;;;;5061929;28;20044;-71
2022/06/06 12:32:43;;;;;;;1.55;1.45;;;24.90;70.20;;;;;;5057950;28;20378;-70
2022/06/06 12:35:11;;;;;;;3.95;1.58;;;24.90;69.30;;;;;;5058569;28;20478;-72
2022/06/06 12:37:49;;;;;;;1.45;1.35;;;25.00;68.90;;;;;;5058732;28;20025;-71
2022/06/06 12:40:52;;;;;;;3.33;1.35;;;25.20;68.90;;;;;;5064338;28;20363;-71
2022/06/06 12:43:52;;;;;;;1.42;1.30;;;25.90;67.60;;;;;;5056377;28;20024;-71
2022/06/06 12:46:34;;;;;;;3.33;1.20;;;26.80;66.00;;;;;;5057735;28;20036;-73
2022/06/06 12:49:21;;;;;;;3.65;1.50;;;27.20;64.90;;;;;;5062616;28;20025;-74
2022/06/06 12:52:36;;;;;;;2.35;1.42;;;27.40;63.80;;;;;;5052565;28;20497;-70
2022/06/06 12:55:40;;;;;;;2.60;1.33;;;27.70;63.90;;;;;;5061436;28;20127;-70
2022/06/06 12:58:07;;;;;;;3.80;1.35;;;27.80;64.00;;;;;;5064767;28;20487;-70
2022/06/06 13:03:42;;;;;;;7.22;2.47;;;28.00;63.30;;;;;;5067071;28;20097;-71
2022/06/06 13:06:32;;;;;;;1.75;1.40;;;28.20;62.30;;;;;;5058267;28;20021;-71
2022/06/06 13:09:03;;;;;;;2.00;1.00;;;28.30;62.40;;;;;;5070835;28;20029;-71
2022/06/06 13:11:50;;;;;;;4.80;1.30;;;28.10;62.80;;;;;;5073237;28;20440;-70
2022/06/06 13:14:31;;;;;;;1.40;1.30;;;27.90;62.10;;;;;;5070513;28;20381;-71
2022/06/06 13:17:21;;;;;;;2.78;1.13;;;27.40;63.00;;;;;;5066069;28;20170;-71
2022/06/06 13:19:51;;;;;;;1.08;0.98;;;26.90;63.50;;;;;;5069168;28;20158;-71
2022/06/06 13:22:51;;;;;;;2.38;1.40;;;26.50;64.00;;;;;;5070431;28;20028;-70
2022/06/06 13:25:44;;;;;;;3.03;1.70;;;26.00;64.50;;;;;;5074413;28;20116;-71
2022/06/06 13:28:12;;;;;;;4.20;1.48;;;25.50;65.60;;;;;;5068972;28;20087;-70
2022/06/06 13:30:49;;;;;;;1.45;1.30;;;25.20;66.50;;;;;;5072991;28;20037;-70
2022/06/06 13:33:18;;;;;;;1.40;1.30;;;24.80;67.40;;;;;;5071433;28;20024;-70
2022/06/06 13:35:59;;;;;;;3.05;1.75;;;24.50;68.40;;;;;;5072595;28;20040;-71
2022/06/06 13:38:41;;;;;;;2.53;1.40;;;24.30;69.00;;;;;;5055056;28;20033;-70
2022/06/06 13:41:36;;;;;;;1.85;1.10;;;24.00;69.20;;;;;;5073115;28;20033;-70
2022/06/06 13:44:31;;;;;;;2.25;1.00;;;23.70;68.80;;;;;;5071065;28;20170;-70
2022/06/06 13:47:16;;;;;;;1.65;1.30;;;23.50;69.70;;;;;;5068934;28;20036;-71
2022/06/06 13:50:02;;;;;;;2.30;1.40;;;23.30;70.10;;;;;;5065514;28;20212;-71
2022/06/06 13:52:27;;;;;;;1.77;1.33;;;23.10;70.20;;;;;;5062952;28;20024;-70
2022/06/06 13:54:53;;;;;;;3.20;1.38;;;23.00;70.80;;;;;;5064057;28;20044;-71
2022/06/06 13:57:38;;;;;;;1.85;1.48;;;22.80;71.40;;;;;;5062585;28;20078;-70
2022/06/06 14:00:25;;;;;;;3.10;1.48;;;22.70;71.90;;;;;;5063286;28;20494;-70
2022/06/06 14:02:51;;;;;;;2.58;1.50;;;22.50;72.70;;;;;;5068220;28;20082;-71
2022/06/06 14:05:57;;;;;;;2.53;1.33;;;22.40;73.70;;;;;;5065019;28;20028;-70
2022/06/06 14:08:23;;;;;;;8.07;1.60;;;22.40;73.50;;;;;;5062500;28;20480;-70
2022/06/06 14:11:18;;;;;;;2.97;1.50;;;22.40;74.20;;;;;;5066620;28;20521;-70
2022/06/06 14:13:50;;;;;;;1.70;1.58;;;22.40;74.20;;;;;;5060667;28;20465;-70
2022/06/06 14:16:57;;;;;;;4.68;2.60;;;22.40;74.00;;;;;;5067030;28;20067;-70
2022/06/06 14:19:46;;;;;;;7.55;2.35;;;22.40;74.40;;;;;;4977966;28;20054;-70
2022/06/06 14:22:29;;;;;;;4.70;1.88;;;22.40;74.50;;;;;;5059029;28;20402;-70
2022/06/06 14:24:55;;;;;;;1.40;1.30;;;22.40;74.60;;;;;;5062262;28;20032;-70
2022/06/06 14:27:22;;;;;;;3.55;1.60;;;22.40;74.90;;;;;;5063578;28;20032;-71